createdAt,value
2019-04-23T00:00:08.851Z,34.47
2019-04-23T00:02:58.876Z,32.33
2019-04-23T00:05:48.047Z,31.70
2019-04-23T00:08:13.410Z,32.77
2019-04-23T00:10:36.665Z,34.53
2019-04-23T00:13:05.815Z,34.37
2019-04-23T00:15:54.810Z,33.63
2019-04-23T00:18:32.163Z,36.87
2019-04-23T00:20:57.872Z,35.27
2019-04-23T00:23:32.760Z,35.70
2019-04-23T00:26:18.867Z,35.47
2019-04-23T00:28:47.910Z,39.00
2019-04-23T00:31:13.654Z,37.07
2019-04-23T00:33:57.733Z,34.10
2019-04-23T00:36:19.449Z,34.27
2019-04-23T00:38:45.476Z,33.10
2019-04-23T00:41:16.419Z,33.30
2019-04-23T00:43:54.727Z,26.23
2019-04-23T00:46:25.200Z,30.87
2019-04-23T00:48:59.088Z,26.20
2019-04-23T00:51:27.050Z,24.40
2019-04-23T00:53:56.731Z,23.27
2019-04-23T00:56:38.703Z,20.23
2019-04-23T00:59:03.984Z,20.10
2019-04-23T01:01:35.833Z,19.93
2019-04-23T01:04:18.565Z,16.60
2019-04-23T01:06:54.557Z,18.47
2019-04-23T01:09:14.134Z,14.67
2019-04-23T01:11:41.895Z,16.57
2019-04-23T01:14:14.856Z,15.00
2019-04-23T01:17:02.649Z,15.33
2019-04-23T01:19:35.212Z,18.30
2019-04-23T01:21:39.513Z,16.13
2019-04-23T01:24:44.640Z,15.43
2019-04-23T01:27:54.810Z,17.47
2019-04-23T01:30:15.896Z,17.33
2019-04-23T01:32:41.053Z,18.20
2019-04-23T01:37:46.531Z,17.40
2019-04-23T01:40:26.870Z,16.20
2019-04-23T01:42:56.152Z,15.50
2019-04-23T01:45:24.558Z,15.10
2019-04-23T01:47:54.771Z,15.63
2019-04-23T01:53:12.329Z,17.10
2019-04-23T01:55:38.413Z,16.80
2019-04-23T01:58:21.916Z,14.80
2019-04-23T02:03:09.446Z,15.00
2019-04-23T02:05:44.852Z,14.67
2019-04-23T02:10:51.391Z,14.07
2019-04-23T02:13:16.509Z,13.67
2019-04-23T02:15:47.402Z,11.53
2019-04-23T02:18:18.289Z,11.43
2019-04-23T02:20:54.602Z,13.07
2019-04-23T02:23:59.685Z,14.83
2019-04-23T02:26:20.055Z,12.00
2019-04-23T02:29:13.306Z,13.67
2019-04-23T02:31:45.091Z,10.30
2019-04-23T02:34:15.044Z,13.80
2019-04-23T02:36:32.533Z,10.87
2019-04-23T02:38:57.980Z,11.47
2019-04-23T02:41:41.496Z,10.93
2019-04-23T02:44:11.538Z,11.47
2019-04-23T02:46:31.305Z,11.17
2019-04-23T02:49:38.187Z,11.50
2019-04-23T02:51:45.518Z,12.70
2019-04-23T02:54:26.600Z,16.27
2019-04-23T02:59:29.080Z,13.00
2019-04-23T03:01:57.928Z,12.00
2019-04-23T03:04:28.659Z,13.37
2019-04-23T03:06:55.595Z,11.30
2019-04-23T03:12:09.789Z,13.17
2019-04-23T03:14:33.409Z,10.00
2019-04-23T03:17:02.976Z,9.83
2019-04-23T03:20:08.010Z,8.13
2019-04-23T03:25:35.642Z,9.63
2019-04-23T03:28:25.140Z,8.10
2019-04-23T03:32:01.784Z,8.13
2019-04-23T03:33:55.462Z,9.17
2019-04-23T03:38:37.534Z,8.60
2019-04-23T03:40:57.118Z,11.83
2019-04-23T03:46:12.285Z,12.57
2019-04-23T03:48:33.992Z,15.63
2019-04-23T03:50:52.260Z,15.47
2019-04-23T03:53:43.160Z,16.23
2019-04-23T03:58:42.581Z,13.63
2019-04-23T04:01:11.950Z,15.40
2019-04-23T04:06:23.531Z,17.33
2019-04-23T04:08:55.961Z,18.93
2019-04-23T04:13:53.234Z,24.10
2019-04-23T04:16:18.230Z,21.20
2019-04-23T04:21:27.255Z,19.90
2019-04-23T04:24:01.698Z,20.93
2019-04-23T04:31:41.548Z,21.17
2019-04-23T04:34:11.741Z,19.93
2019-04-23T04:37:11.723Z,21.63
2019-04-23T04:39:19.469Z,23.00
2019-04-23T04:41:40.506Z,25.30
2019-04-23T04:44:26.839Z,20.33
2019-04-23T04:46:45.841Z,23.00
2019-04-23T04:49:15.082Z,22.60
2019-04-23T04:54:17.662Z,23.60
2019-04-23T04:56:47.231Z,23.00
2019-04-23T04:59:13.322Z,24.47
2019-04-23T05:07:02.486Z,23.97
2019-04-23T05:09:29.281Z,21.60
2019-04-23T05:16:56.751Z,19.07
2019-04-23T05:24:35.229Z,20.50
2019-04-23T05:27:04.546Z,19.00
2019-04-23T05:29:42.817Z,20.57
2019-04-23T05:32:10.116Z,20.13
2019-04-23T05:34:40.088Z,19.57
2019-04-23T05:37:15.978Z,16.30
2019-04-23T05:42:33.156Z,13.77
2019-04-23T05:44:52.530Z,12.63
2019-04-23T05:47:23.089Z,11.73
2019-04-23T05:49:54.727Z,15.37
2019-04-23T05:52:24.019Z,15.37
2019-04-23T05:54:56.352Z,15.07
2019-04-23T05:57:33.295Z,18.27
2019-04-23T05:59:56.919Z,13.33
2019-04-23T06:02:37.275Z,16.83
2019-04-23T06:05:03.824Z,14.43
2019-04-23T06:07:38.951Z,14.27
2019-04-23T06:10:06.455Z,16.10
2019-04-23T06:12:37.041Z,13.33
2019-04-23T06:15:11.554Z,14.63
2019-04-23T06:17:38.155Z,14.97
2019-04-23T06:20:16.482Z,17.10
2019-04-23T06:25:35.757Z,13.10
2019-04-23T06:30:31.227Z,12.33
2019-04-23T06:32:51.454Z,11.87
2019-04-23T06:35:22.532Z,13.37
2019-04-23T06:38:24.172Z,11.90
2019-04-23T06:40:26.659Z,11.67
2019-04-23T06:43:05.341Z,11.73
2019-04-23T06:45:35.554Z,12.87
2019-04-23T06:48:15.451Z,12.47
2019-04-23T06:50:43.399Z,11.37
2019-04-23T06:53:04.342Z,17.43
2019-04-23T06:55:42.533Z,12.40
2019-04-23T06:58:24.043Z,10.67
2019-04-23T07:00:51.257Z,11.53
2019-04-23T07:03:25.943Z,12.23
2019-04-23T07:13:57.725Z,14.23
2019-04-23T07:16:16.040Z,15.03
2019-04-23T07:18:48.897Z,14.33
2019-04-23T07:21:23.562Z,11.57
2019-04-23T07:29:00.016Z,11.40
2019-04-23T07:34:01.282Z,14.53
2019-04-23T07:39:11.665Z,13.00
2019-04-23T07:42:03.597Z,12.63
2019-04-23T07:44:42.363Z,13.98
2019-04-23T07:47:53.759Z,11.03
2019-04-23T07:50:15.888Z,13.30
2019-04-23T07:52:41.485Z,15.97
2019-04-23T07:55:23.635Z,11.93
2019-04-23T07:57:44.295Z,16.35
2019-04-23T08:00:24.106Z,11.90
2019-04-23T08:02:49.955Z,12.73
2019-04-23T08:07:54.143Z,12.70
2019-04-23T08:10:22.797Z,13.30
2019-04-23T08:12:52.755Z,12.73
2019-04-23T08:15:30.954Z,12.85
2019-04-23T08:17:58.660Z,11.65
2019-04-23T08:20:29.960Z,16.97
2019-04-23T08:23:05.942Z,12.95
2019-04-23T08:26:13.624Z,14.78
2019-04-23T08:28:41.971Z,12.10
2019-04-23T08:31:07.829Z,10.70
2019-04-23T08:33:44.795Z,12.65
2019-04-23T08:36:18.200Z,13.85
2019-04-23T08:38:58.285Z,11.08
2019-04-23T08:43:46.624Z,13.03
2019-04-23T08:49:25.760Z,15.98
2019-04-23T08:51:53.368Z,14.40
2019-04-23T08:54:39.235Z,14.40
2019-04-23T08:57:04.089Z,12.07
2019-04-23T09:02:18.930Z,16.37
2019-04-23T09:04:43.631Z,15.10
2019-04-23T09:07:12.891Z,14.33
2019-04-23T09:09:43.802Z,15.43
2019-04-23T09:12:14.748Z,15.68
2019-04-23T09:14:38.120Z,15.68
2019-04-23T09:17:27.704Z,13.98
2019-04-23T09:22:25.147Z,16.27
2019-04-23T09:24:46.872Z,14.23
2019-04-23T09:27:31.660Z,13.95
2019-04-23T09:30:06.889Z,16.60
2019-04-23T09:32:24.819Z,15.45
2019-04-23T09:35:27.484Z,15.00
2019-04-23T09:44:14.413Z,13.65
2019-04-23T09:46:47.293Z,15.03
2019-04-23T09:49:20.654Z,16.52
2019-04-23T09:51:55.547Z,18.48
2019-04-23T09:54:18.478Z,16.17
2019-04-23T09:56:47.787Z,14.15
2019-04-23T10:01:45.494Z,18.17
2019-04-23T10:04:12.542Z,16.45
2019-04-23T10:06:34.475Z,16.62
2019-04-23T10:09:06.171Z,16.32
2019-04-23T10:11:34.864Z,18.98
2019-04-23T10:14:06.240Z,16.40
2019-04-23T10:16:36.932Z,17.57
2019-04-23T10:19:08.029Z,17.45
2019-04-23T10:21:39.442Z,15.35
2019-04-23T10:24:09.684Z,17.32
2019-04-23T10:26:39.986Z,15.40
2019-04-23T10:29:18.147Z,16.30
2019-04-23T10:31:49.369Z,16.02
2019-04-23T10:34:21.031Z,18.30
2019-04-23T10:36:51.582Z,13.98
2019-04-23T10:39:26.280Z,16.30
2019-04-23T10:41:56.994Z,16.40
2019-04-23T10:44:52.095Z,16.42
2019-04-23T10:48:30.920Z,16.70
2019-04-23T10:53:30.008Z,15.93
2019-04-23T10:56:20.044Z,14.83
2019-04-23T10:58:34.928Z,16.85
2019-04-23T11:01:06.326Z,14.65
2019-04-23T11:03:48.691Z,15.25
2019-04-23T11:06:17.752Z,13.85
2019-04-23T11:08:40.592Z,15.38
2019-04-23T11:11:16.616Z,15.88
2019-04-23T11:13:48.818Z,16.97
2019-04-23T11:19:11.294Z,15.10
2019-04-23T11:21:29.883Z,13.53
2019-04-23T11:24:02.536Z,14.45
2019-04-23T11:29:07.459Z,13.93
2019-04-23T11:31:39.253Z,13.45
2019-04-23T11:39:05.527Z,11.30
2019-04-23T11:41:45.686Z,12.68
2019-04-23T11:44:18.985Z,13.43
2019-04-23T11:46:53.978Z,12.78
2019-04-23T11:49:29.541Z,10.48
2019-04-23T11:51:54.720Z,12.07
2019-04-23T11:54:21.352Z,9.65
2019-04-23T11:59:31.821Z,12.53
2019-04-23T12:02:23.399Z,11.68
2019-04-23T12:05:24.753Z,9.65
2019-04-23T12:07:52.336Z,14.38
2019-04-23T12:13:03.865Z,11.38
2019-04-23T12:15:32.841Z,9.80
2019-04-23T12:18:15.048Z,8.78
2019-04-23T12:20:39.812Z,8.90
2019-04-23T12:25:51.552Z,8.90
2019-04-23T12:28:14.087Z,10.10
2019-04-23T12:30:45.431Z,10.25
2019-04-23T12:33:20.751Z,9.25
2019-04-23T12:35:41.711Z,9.70
2019-04-23T12:38:19.242Z,9.53
2019-04-23T12:41:10.619Z,10.58
2019-04-23T12:43:20.695Z,11.88
2019-04-23T12:45:46.856Z,10.00
2019-04-23T12:51:17.443Z,8.55
2019-04-23T12:56:03.734Z,13.00
2019-04-23T12:58:41.677Z,11.35
2019-04-23T13:01:10.823Z,10.98
2019-04-23T13:03:32.946Z,11.43
2019-04-23T13:06:11.167Z,9.65
2019-04-23T13:08:44.231Z,9.45
2019-04-23T13:11:14.088Z,9.00
2019-04-23T13:13:48.377Z,10.53
2019-04-23T13:16:22.169Z,9.88
2019-04-23T13:18:49.740Z,13.20
2019-04-23T13:21:45.288Z,13.22
2019-04-23T13:23:55.602Z,10.55
2019-04-23T13:26:30.732Z,10.55
2019-04-23T13:29:16.122Z,11.10
2019-04-23T13:31:34.694Z,15.48
2019-04-23T13:34:16.281Z,11.08
2019-04-23T13:39:21.195Z,11.05
2019-04-23T13:41:47.864Z,13.68
2019-04-23T13:44:19.319Z,11.45
2019-04-23T13:46:52.585Z,9.98
2019-04-23T13:49:28.382Z,7.42
2019-04-23T13:51:58.785Z,10.38
2019-04-23T13:54:50.221Z,10.70
2019-04-23T13:57:36.497Z,10.20
2019-04-23T13:59:38.930Z,13.40
2019-04-23T14:02:03.281Z,14.00
2019-04-23T14:07:34.633Z,13.28
2019-04-23T14:10:07.228Z,14.13
2019-04-23T14:12:31.974Z,11.90
2019-04-23T14:15:24.191Z,12.68
2019-04-23T14:20:08.695Z,18.17
2019-04-23T14:25:10.021Z,9.50
2019-04-23T14:27:51.399Z,11.20
2019-04-23T14:32:47.020Z,8.93
2019-04-23T14:38:02.380Z,15.90
2019-04-23T14:40:26.549Z,9.98
2019-04-23T14:43:04.342Z,13.00
2019-04-23T14:46:25.122Z,19.07
2019-04-23T14:48:10.370Z,15.98
2019-04-23T14:53:12.128Z,11.40
2019-04-23T14:55:49.008Z,14.33
2019-04-23T14:58:20.330Z,14.87
2019-04-23T15:00:54.120Z,11.38
2019-04-23T15:03:24.938Z,15.50
2019-04-23T15:05:59.709Z,11.70
2019-04-23T15:08:25.161Z,12.88
2019-04-23T15:11:06.535Z,14.80
2019-04-23T15:13:22.711Z,15.80
2019-04-23T15:16:02.892Z,10.35
2019-04-23T15:19:07.952Z,10.65
2019-04-23T15:28:41.217Z,15.63
2019-04-23T15:31:33.040Z,16.20
2019-04-23T15:34:10.780Z,13.53
2019-04-23T15:36:50.814Z,11.90
2019-04-23T15:39:26.805Z,15.65
2019-04-23T15:46:47.140Z,14.47
2019-04-23T15:54:19.530Z,13.08
2019-04-23T15:56:54.807Z,9.38
2019-04-23T15:59:28.994Z,16.25
2019-04-23T16:01:43.573Z,8.28
2019-04-23T16:03:57.601Z,13.40
2019-04-23T16:06:30.916Z,13.95
2019-04-23T16:09:17.898Z,12.82
2019-04-23T16:11:51.780Z,14.23
2019-04-23T16:14:35.804Z,13.43
2019-04-23T16:17:09.893Z,11.68
2019-04-23T16:20:09.266Z,14.40
2019-04-23T16:22:24.904Z,16.82
2019-04-23T16:25:00.917Z,13.93
2019-04-23T16:27:19.631Z,13.98
2019-04-23T16:30:12.845Z,13.22
2019-04-23T16:32:57.770Z,10.15
2019-04-23T16:38:07.736Z,15.93
2019-04-23T16:43:03.540Z,13.55
2019-04-23T16:48:17.207Z,14.40
2019-04-23T16:50:43.922Z,11.57
2019-04-23T16:53:21.520Z,10.90
2019-04-23T16:55:38.381Z,13.80
2019-04-23T16:58:21.863Z,15.58
2019-04-23T17:00:51.593Z,13.88
2019-04-23T17:05:50.707Z,12.47
2019-04-23T17:13:24.080Z,13.30
2019-04-23T17:15:58.690Z,10.00
2019-04-23T17:20:58.355Z,9.88
2019-04-23T17:23:38.867Z,11.78
2019-04-23T17:26:04.207Z,10.85
2019-04-23T17:28:56.252Z,12.28
2019-04-23T17:31:26.593Z,13.28
2019-04-23T17:33:43.468Z,14.35
2019-04-23T17:39:06.797Z,13.43
2019-04-23T17:41:50.091Z,14.00
2019-04-23T17:46:54.190Z,15.05
2019-04-23T17:49:24.872Z,12.78
2019-04-23T17:51:59.192Z,15.53
2019-04-23T17:54:24.766Z,13.78
2019-04-23T18:05:02.821Z,14.83
2019-04-23T18:07:38.387Z,12.03
2019-04-23T18:10:09.815Z,17.27
2019-04-23T18:12:40.541Z,11.75
2019-04-23T18:17:35.470Z,13.25
2019-04-23T18:20:16.305Z,17.32
2019-04-23T18:22:56.857Z,14.95
2019-04-23T18:25:45.746Z,15.55
2019-04-23T18:28:08.458Z,14.13
2019-04-23T18:31:11.256Z,14.80
2019-04-23T18:34:03.734Z,15.03
2019-04-23T18:36:19.723Z,12.55
2019-04-23T18:39:08.550Z,15.75
2019-04-23T18:41:29.064Z,19.27
2019-04-23T18:44:06.978Z,12.23
2019-04-23T18:46:36.732Z,14.93
2019-04-23T18:48:58.187Z,17.02
2019-04-23T18:51:38.396Z,17.52
2019-04-23T18:54:03.085Z,13.72
2019-04-23T18:59:10.706Z,16.75
2019-04-23T19:02:17.322Z,19.12
2019-04-23T19:05:03.815Z,17.30
2019-04-23T19:07:42.972Z,17.52
2019-04-23T19:10:29.190Z,13.58
2019-04-23T19:13:28.698Z,19.10
2019-04-23T19:15:37.997Z,17.85
2019-04-23T19:18:14.245Z,13.58
2019-04-23T19:20:55.787Z,15.85
2019-04-23T19:25:46.800Z,18.85
2019-04-23T19:28:34.555Z,16.02
2019-04-23T19:31:26.102Z,16.75
2019-04-23T19:36:49.284Z,18.20
2019-04-23T19:39:21.435Z,16.17
2019-04-23T19:44:22.205Z,12.82
2019-04-23T19:46:54.592Z,17.05
2019-04-23T19:51:53.217Z,18.57
2019-04-23T19:59:41.025Z,20.60
2019-04-23T20:02:00.165Z,13.75
2019-04-23T20:04:39.333Z,15.63
2019-04-23T20:09:43.169Z,19.82
2019-04-23T20:12:06.253Z,15.88
2019-04-23T20:14:49.754Z,16.25
2019-04-23T20:19:44.207Z,10.25
2019-04-23T20:22:26.116Z,21.05
2019-04-23T20:24:57.629Z,16.60
2019-04-23T20:27:35.135Z,11.10
2019-04-23T20:30:33.888Z,15.55
2019-04-23T20:35:21.558Z,14.07
2019-04-23T20:40:31.231Z,18.12
2019-04-23T20:42:53.496Z,20.62
2019-04-23T20:45:27.381Z,16.57
2019-04-23T20:47:57.780Z,14.68
2019-04-23T20:50:34.493Z,19.10
2019-04-23T20:52:57.472Z,16.85
2019-04-23T20:55:54.611Z,12.37
2019-04-23T20:58:20.930Z,16.80
2019-04-23T21:01:27.380Z,14.83
2019-04-23T21:06:30.086Z,21.07
2019-04-23T21:11:24.166Z,18.92
2019-04-23T21:16:36.266Z,17.52
2019-04-23T21:18:54.997Z,18.20
2019-04-23T21:21:39.746Z,19.67
2019-04-23T21:24:01.332Z,17.65
2019-04-23T21:26:46.066Z,22.77
2019-04-23T21:29:04.055Z,17.50
2019-04-23T21:31:48.447Z,18.27
2019-04-23T21:34:21.098Z,21.12
2019-04-23T21:36:48.208Z,22.15
2019-04-23T21:39:38.524Z,23.95
2019-04-23T21:42:21.034Z,25.72
2019-04-23T21:44:55.648Z,22.42
2019-04-23T21:47:25.531Z,21.57
2019-04-23T21:50:10.694Z,19.32
2019-04-23T21:52:49.009Z,18.80
2019-04-23T21:57:46.339Z,14.35
2019-04-23T21:59:59.303Z,17.60
2019-04-23T22:02:50.519Z,16.23
2019-04-23T22:05:09.430Z,18.00
2019-04-23T22:07:51.766Z,15.65
2019-04-23T22:10:11.674Z,17.80
2019-04-23T22:13:02.197Z,19.85
2019-04-23T22:15:13.041Z,19.15
2019-04-23T22:20:25.501Z,14.85
2019-04-23T22:25:21.886Z,19.77
2019-04-23T22:28:10.143Z,16.48
2019-04-23T22:30:30.688Z,17.82
2019-04-23T22:33:02.605Z,14.85
2019-04-23T22:35:35.124Z,16.97
2019-04-23T22:38:15.826Z,18.37
2019-04-23T22:40:34.874Z,17.10
2019-04-23T22:43:25.268Z,14.20
2019-04-23T22:45:43.200Z,17.82
2019-04-23T22:48:17.955Z,17.57
2019-04-23T22:50:59.226Z,19.87
2019-04-23T22:55:57.364Z,24.85
2019-04-23T22:58:36.894Z,19.73
2019-04-23T23:03:44.141Z,20.10
2019-04-23T23:09:02.617Z,17.60
2019-04-23T23:11:13.655Z,18.50
2019-04-23T23:14:09.729Z,17.63
2019-04-23T23:16:21.353Z,18.63
2019-04-23T23:19:05.098Z,16.33
2019-04-23T23:21:38.139Z,16.30
2019-04-23T23:23:59.625Z,16.17
2019-04-23T23:26:31.723Z,21.70
2019-04-23T23:29:00.684Z,15.13
2019-04-23T23:31:38.080Z,17.37
2019-04-23T23:34:09.847Z,13.53
2019-04-23T23:36:46.879Z,24.33
2019-04-23T23:39:16.226Z,19.13
2019-04-23T23:41:48.900Z,17.20
2019-04-23T23:49:22.145Z,17.70
2019-04-23T23:51:49.573Z,15.20
2019-04-23T23:57:11.193Z,19.33
2019-04-23T23:59:48.160Z,19.47
